sensor_id;sensor_type;location;lat;lon;timestamp;temperature;humidity
72602;DHT22;60644;55.858;37.390;2022-11-20T07:58:43;0.07;68.29
72602;DHT22;60644;55.858;37.390;2022-11-20T08:01:09;0.12;68.22
72602;DHT22;60644;55.858;37.390;2022-11-20T08:03:35;0.12;67.81
72602;DHT22;60644;55.858;37.390;2022-11-20T08:06:03;0.09;68.05
72602;DHT22;60644;55.858;37.390;2022-11-20T08:08:29;0.16;68.29
72602;DHT22;60644;55.858;37.390;2022-11-20T08:10:58;0.18;68.06
72602;DHT22;60644;55.858;37.390;2022-11-20T08:13:44;0.22;68.04
72602;DHT22;60644;55.858;37.390;2022-11-20T08:16:29;0.22;67.96
72602;DHT22;60644;55.858;37.390;2022-11-20T08:18:55;0.23;67.83
72602;DHT22;60644;55.858;37.390;2022-11-20T08:21:20;0.25;68.01
72602;DHT22;60644;55.858;37.390;2022-11-20T08:23:46;0.31;67.78
72602;DHT22;60644;55.858;37.390;2022-11-20T08:26:12;0.32;67.60
72602;DHT22;60644;55.858;37.390;2022-11-20T08:28:38;0.33;67.46
72602;DHT22;60644;55.858;37.390;2022-11-20T08:31:04;0.33;67.86
72602;DHT22;60644;55.858;37.390;2022-11-20T08:33:31;0.34;67.66
72602;DHT22;60644;55.858;37.390;2022-11-20T08:36:02;0.35;67.78
72602;DHT22;60644;55.858;37.390;2022-11-20T08:38:29;0.39;67.84
72602;DHT22;60644;55.858;37.390;2022-11-20T08:40:57;0.40;67.55
72602;DHT22;60644;55.858;37.390;2022-11-20T08:43:46;0.42;67.63
72602;DHT22;60644;55.858;37.390;2022-11-20T08:46:12;0.42;67.55
72602;DHT22;60644;55.858;37.390;2022-11-20T08:48:38;0.45;67.78
72602;DHT22;60644;55.858;37.390;2022-11-20T08:51:04;0.46;67.51
72602;DHT22;60644;55.858;37.390;2022-11-20T08:53:30;0.49;67.78
72602;DHT22;60644;55.858;37.390;2022-11-20T08:55:59;0.48;67.36
72602;DHT22;60644;55.858;37.390;2022-11-20T08:58:25;0.47;66.78
72602;DHT22;60644;55.858;37.390;2022-11-20T09:00:51;0.43;67.23
72602;DHT22;60644;55.858;37.390;2022-11-20T09:03:17;0.49;67.61
72602;DHT22;60644;55.858;37.390;2022-11-20T09:05:43;0.53;67.28
72602;DHT22;60644;55.858;37.390;2022-11-20T09:08:09;0.53;67.43
72602;DHT22;60644;55.858;37.390;2022-11-20T09:10:35;0.59;67.55
72602;DHT22;60644;55.858;37.390;2022-11-20T09:13:02;0.58;66.88
72602;DHT22;60644;55.858;37.390;2022-11-20T09:15:28;0.53;66.82
72602;DHT22;60644;55.858;37.390;2022-11-20T09:17:55;0.57;67.36
72602;DHT22;60644;55.858;37.390;2022-11-20T09:20:21;0.60;67.36
72602;DHT22;60644;55.858;37.390;2022-11-20T09:22:47;0.61;67.14
72602;DHT22;60644;55.858;37.390;2022-11-20T09:25:13;0.53;66.80
72602;DHT22;60644;55.858;37.390;2022-11-20T09:27:39;0.49;67.20
72602;DHT22;60644;55.858;37.390;2022-11-20T09:30:07;0.47;67.33
72602;DHT22;60644;55.858;37.390;2022-11-20T09:32:33;0.46;67.46
72602;DHT22;60644;55.858;37.390;2022-11-20T09:34:59;0.49;67.40
72602;DHT22;60644;55.858;37.390;2022-11-20T09:37:24;0.47;67.59
72602;DHT22;60644;55.858;37.390;2022-11-20T09:39:50;0.40;67.71
72602;DHT22;60644;55.858;37.390;2022-11-20T09:51:51;0.01;70.48
72602;DHT22;60644;55.858;37.390;2022-11-20T09:54:20;0.04;70.49
72602;DHT22;60644;55.858;37.390;2022-11-20T09:56:50;0.04;70.52
72602;DHT22;60644;55.858;37.390;2022-11-20T09:59:39;0.02;71.07
72602;DHT22;60644;55.858;37.390;2022-11-20T10:04:56;0.04;71.25
72602;DHT22;60644;55.858;37.390;2022-11-20T10:07:33;0.10;70.91
72602;DHT22;60644;55.858;37.390;2022-11-20T10:10:02;0.17;71.13
72602;DHT22;60644;55.858;37.390;2022-11-20T10:29:49;0.04;72.15
72602;DHT22;60644;55.858;37.390;2022-11-20T10:32:20;0.05;72.16
72602;DHT22;60644;55.858;37.390;2022-11-20T10:37:44;0.15;72.02
72602;DHT22;60644;55.858;37.390;2022-11-20T10:40:23;0.24;71.74
72602;DHT22;60644;55.858;37.390;2022-11-20T10:42:56;0.19;71.61
72602;DHT22;60644;55.858;37.390;2022-11-20T10:50:40;0.31;71.19
72602;DHT22;60644;55.858;37.390;2022-11-20T10:53:37;0.31;71.02
72602;DHT22;60644;55.858;37.390;2022-11-20T10:56:24;0.08;71.77
72602;DHT22;60644;55.858;37.390;2022-11-20T11:01:53;0.19;71.67
72602;DHT22;60644;55.858;37.390;2022-11-20T11:04:37;0.22;71.53
72602;DHT22;60644;55.858;37.390;2022-11-20T11:07:13;0.19;71.00
72602;DHT22;60644;55.858;37.390;2022-11-20T11:09:48;0.17;71.10
72602;DHT22;60644;55.858;37.390;2022-11-20T11:12:15;0.20;70.81
72602;DHT22;60644;55.858;37.390;2022-11-20T11:14:49;0.19;70.25
72602;DHT22;60644;55.858;37.390;2022-11-20T11:17:27;0.21;70.31
72602;DHT22;60644;55.858;37.390;2022-11-20T11:22:31;0.25;69.54
72602;DHT22;60644;55.858;37.390;2022-11-20T11:24:58;0.25;69.64
72602;DHT22;60644;55.858;37.390;2022-11-20T11:27:24;0.29;69.33
72602;DHT22;60644;55.858;37.390;2022-11-20T11:30:02;0.31;69.03
72602;DHT22;60644;55.858;37.390;2022-11-20T11:32:29;0.31;68.84
72602;DHT22;60644;55.858;37.390;2022-11-20T11:37:32;0.32;67.99
72602;DHT22;60644;55.858;37.390;2022-11-20T11:40:00;0.30;67.83
72602;DHT22;60644;55.858;37.390;2022-11-20T11:42:27;0.29;67.62
72602;DHT22;60644;55.858;37.390;2022-11-20T11:44:55;0.31;67.93
72602;DHT22;60644;55.858;37.390;2022-11-20T11:47:35;0.34;67.97
72602;DHT22;60644;55.858;37.390;2022-11-20T12:03:44;0.38;66.95
72602;DHT22;60644;55.858;37.390;2022-11-20T12:06:14;0.40;67.04
72602;DHT22;60644;55.858;37.390;2022-11-20T12:09:08;0.48;67.38
72602;DHT22;60644;55.858;37.390;2022-11-20T12:12:02;0.49;67.17
72602;DHT22;60644;55.858;37.390;2022-11-20T12:14:35;0.50;67.08
72602;DHT22;60644;55.858;37.390;2022-11-20T12:17:03;0.49;66.98
72602;DHT22;60644;55.858;37.390;2022-11-20T12:19:34;0.48;67.28
72602;DHT22;60644;55.858;37.390;2022-11-20T12:24:51;0.49;67.15
72602;DHT22;60644;55.858;37.390;2022-11-20T12:27:39;0.50;66.98
72602;DHT22;60644;55.858;37.390;2022-11-20T12:30:14;0.52;66.94
72602;DHT22;60644;55.858;37.390;2022-11-20T12:40:49;0.38;66.61
72602;DHT22;60644;55.858;37.390;2022-11-20T12:43:25;0.33;66.20
72602;DHT22;60644;55.858;37.390;2022-11-20T12:57:43;0.30;67.17
72602;DHT22;60644;55.858;37.390;2022-11-20T13:00:15;0.32;67.05
72602;DHT22;60644;55.858;37.390;2022-11-20T13:05:54;0.34;66.80
72602;DHT22;60644;55.858;37.390;2022-11-20T13:08:35;0.35;66.55
72602;DHT22;60644;55.858;37.390;2022-11-20T13:19:17;0.29;66.58
72602;DHT22;60644;55.858;37.390;2022-11-20T13:21:45;0.29;66.77
72602;DHT22;60644;55.858;37.390;2022-11-20T13:29:44;0.34;66.69
72602;DHT22;60644;55.858;37.390;2022-11-20T13:34:38;0.35;65.49
72602;DHT22;60644;55.858;37.390;2022-11-20T13:37:05;0.36;66.17
72602;DHT22;60644;55.858;37.390;2022-11-20T13:39:35;0.42;66.38
72602;DHT22;60644;55.858;37.390;2022-11-20T13:42:22;0.39;66.33
72602;DHT22;60644;55.858;37.390;2022-11-20T13:44:55;0.23;65.67
72602;DHT22;60644;55.858;37.390;2022-11-20T13:47:26;0.18;66.52
72602;DHT22;60644;55.858;37.390;2022-11-20T13:49:54;0.17;66.33
72602;DHT22;60644;55.858;37.390;2022-11-20T13:58:10;0.14;66.00
72602;DHT22;60644;55.858;37.390;2022-11-20T14:00:56;0.06;66.19
72602;DHT22;60644;55.858;37.390;2022-11-20T14:03:23;0.06;66.35
72602;DHT22;60644;55.858;37.390;2022-11-20T14:06:02;0.06;66.53
72602;DHT22;60644;55.858;37.390;2022-11-20T14:08:46;0.12;66.65
72602;DHT22;60644;55.858;37.390;2022-11-20T14:11:21;0.15;66.25
72602;DHT22;60644;55.858;37.390;2022-11-20T14:14:21;0.15;66.69
72602;DHT22;60644;55.858;37.390;2022-11-20T14:16:48;0.15;66.41
72602;DHT22;60644;55.858;37.390;2022-11-20T14:19:25;0.16;66.63
72602;DHT22;60644;55.858;37.390;2022-11-20T14:24:33;0.25;66.68
72602;DHT22;60644;55.858;37.390;2022-11-20T14:26:59;0.30;66.78
72602;DHT22;60644;55.858;37.390;2022-11-20T14:29:35;0.20;66.31
72602;DHT22;60644;55.858;37.390;2022-11-20T14:32:02;0.22;66.72
72602;DHT22;60644;55.858;37.390;2022-11-20T14:34:31;0.29;66.35
72602;DHT22;60644;55.858;37.390;2022-11-20T14:37:06;0.30;66.43
72602;DHT22;60644;55.858;37.390;2022-11-20T14:39:37;0.32;66.64
72602;DHT22;60644;55.858;37.390;2022-11-20T14:42:16;0.36;66.61
72602;DHT22;60644;55.858;37.390;2022-11-20T14:44:42;0.39;66.66
72602;DHT22;60644;55.858;37.390;2022-11-20T14:47:12;0.43;66.34
72602;DHT22;60644;55.858;37.390;2022-11-20T14:49:39;0.43;66.40
72602;DHT22;60644;55.858;37.390;2022-11-20T14:52:23;0.42;66.41
72602;DHT22;60644;55.858;37.390;2022-11-20T14:54:54;0.43;66.21
72602;DHT22;60644;55.858;37.390;2022-11-20T14:57:32;0.43;66.27
72602;DHT22;60644;55.858;37.390;2022-11-20T15:00:19;0.42;66.18
72602;DHT22;60644;55.858;37.390;2022-11-20T15:02:47;0.45;66.32
72602;DHT22;60644;55.858;37.390;2022-11-20T15:05:14;0.45;65.86
72602;DHT22;60644;55.858;37.390;2022-11-20T15:07:49;0.45;65.53
72602;DHT22;60644;55.858;37.390;2022-11-20T15:10:26;0.43;65.92
72602;DHT22;60644;55.858;37.390;2022-11-20T15:12:55;0.47;66.07
72602;DHT22;60644;55.858;37.390;2022-11-20T15:15:35;0.47;65.53
72602;DHT22;60644;55.858;37.390;2022-11-20T15:18:03;0.47;65.73
72602;DHT22;60644;55.858;37.390;2022-11-20T15:20:31;0.48;65.86
72602;DHT22;60644;55.858;37.390;2022-11-20T15:22:58;0.52;65.98
72602;DHT22;60644;55.858;37.390;2022-11-20T15:25:24;0.55;65.91
72602;DHT22;60644;55.858;37.390;2022-11-20T15:27:55;0.60;65.56
72602;DHT22;60644;55.858;37.390;2022-11-20T15:30:22;0.51;65.11
72602;DHT22;60644;55.858;37.390;2022-11-20T15:32:49;0.51;65.33
72602;DHT22;60644;55.858;37.390;2022-11-20T15:35:15;0.52;65.14
72602;DHT22;60644;55.858;37.390;2022-11-20T15:37:41;0.50;65.29
72602;DHT22;60644;55.858;37.390;2022-11-20T15:40:08;0.51;65.47
72602;DHT22;60644;55.858;37.390;2022-11-20T15:42:34;0.47;65.64
72602;DHT22;60644;55.858;37.390;2022-11-20T15:45:00;0.49;66.50
72602;DHT22;60644;55.858;37.390;2022-11-20T15:47:32;0.55;66.74
72602;DHT22;60644;55.858;37.390;2022-11-20T15:49:59;0.61;66.46
72602;DHT22;60644;55.858;37.390;2022-11-20T15:52:25;0.64;66.33
72602;DHT22;60644;55.858;37.390;2022-11-20T15:54:51;0.65;66.21
72602;DHT22;60644;55.858;37.390;2022-11-20T15:57:16;0.63;65.96
72602;DHT22;60644;55.858;37.390;2022-11-20T15:59:42;0.61;65.59
72602;DHT22;60644;55.858;37.390;2022-11-20T16:02:10;0.58;65.39
72602;DHT22;60644;55.858;37.390;2022-11-20T16:04:37;0.59;65.62
72602;DHT22;60644;55.858;37.390;2022-11-20T16:07:03;0.61;65.73
72602;DHT22;60644;55.858;37.390;2022-11-20T16:09:29;0.61;65.44
72602;DHT22;60644;55.858;37.390;2022-11-20T16:11:55;0.60;65.17
72602;DHT22;60644;55.858;37.390;2022-11-20T16:14:24;0.57;65.42
72602;DHT22;60644;55.858;37.390;2022-11-20T16:17:08;0.55;65.33
72602;DHT22;60644;55.858;37.390;2022-11-20T16:19:34;0.54;65.53
72602;DHT22;60644;55.858;37.390;2022-11-20T16:22:01;0.46;65.06
72602;DHT22;60644;55.858;37.390;2022-11-20T16:24:28;0.40;65.26
72602;DHT22;60644;55.858;37.390;2022-11-20T16:26:54;0.43;65.63
72602;DHT22;60644;55.858;37.390;2022-11-20T16:29:21;0.44;65.40
72602;DHT22;60644;55.858;37.390;2022-11-20T16:31:47;0.39;65.14
72602;DHT22;60644;55.858;37.390;2022-11-20T16:34:16;0.36;65.28
72602;DHT22;60644;55.858;37.390;2022-11-20T16:36:43;0.34;65.50
72602;DHT22;60644;55.858;37.390;2022-11-20T16:39:11;0.39;65.79
72602;DHT22;60644;55.858;37.390;2022-11-20T16:41:38;0.37;65.28
72602;DHT22;60644;55.858;37.390;2022-11-20T16:44:09;0.32;65.21
72602;DHT22;60644;55.858;37.390;2022-11-20T16:46:37;0.30;65.65
72602;DHT22;60644;55.858;37.390;2022-11-20T16:49:08;0.28;65.60
72602;DHT22;60644;55.858;37.390;2022-11-20T16:51:36;0.18;65.09
72602;DHT22;60644;55.858;37.390;2022-11-20T16:54:04;0.09;65.46
72602;DHT22;60644;55.858;37.390;2022-11-20T16:56:30;0.06;65.63
72602;DHT22;60644;55.858;37.390;2022-11-20T16:58:59;-0.02;65.72
72602;DHT22;60644;55.858;37.390;2022-11-20T17:01:26;-0.06;66.11
72602;DHT22;60644;55.858;37.390;2022-11-20T17:04:03;-0.01;65.81
72602;DHT22;60644;55.858;37.390;2022-11-20T17:06:34;0.05;66.24
72602;DHT22;60644;55.858;37.390;2022-11-20T17:09:02;0.09;65.91
72602;DHT22;60644;55.858;37.390;2022-11-20T17:11:28;0.14;66.07
72602;DHT22;60644;55.858;37.390;2022-11-20T17:13:55;0.13;65.95
72602;DHT22;60644;55.858;37.390;2022-11-20T17:16:23;0.17;65.91
72602;DHT22;60644;55.858;37.390;2022-11-20T17:18:57;0.14;65.66
72602;DHT22;60644;55.858;37.390;2022-11-20T17:21:24;0.08;65.78
72602;DHT22;60644;55.858;37.390;2022-11-20T17:23:51;0.06;65.93
72602;DHT22;60644;55.858;37.390;2022-11-20T17:26:20;0.04;65.92
72602;DHT22;60644;55.858;37.390;2022-11-20T17:28:54;0.08;66.24
72602;DHT22;60644;55.858;37.390;2022-11-20T17:31:21;0.10;65.98
72602;DHT22;60644;55.858;37.390;2022-11-20T17:33:47;0.08;66.03
72602;DHT22;60644;55.858;37.390;2022-11-20T17:36:15;0.04;66.34
72602;DHT22;60644;55.858;37.390;2022-11-20T17:38:41;0.08;66.53
72602;DHT22;60644;55.858;37.390;2022-11-20T17:41:11;0.07;66.19
72602;DHT22;60644;55.858;37.390;2022-11-20T17:43:37;-0.15;66.66
72602;DHT22;60644;55.858;37.390;2022-11-20T17:46:05;-0.10;66.78
72602;DHT22;60644;55.858;37.390;2022-11-20T17:48:32;-0.02;66.55
72602;DHT22;60644;55.858;37.390;2022-11-20T17:51:00;0.01;66.59
72602;DHT22;60644;55.858;37.390;2022-11-20T17:53:27;0.06;66.71
72602;DHT22;60644;55.858;37.390;2022-11-20T17:55:56;0.10;66.56
72602;DHT22;60644;55.858;37.390;2022-11-20T17:58:41;0.13;66.28
72602;DHT22;60644;55.858;37.390;2022-11-20T18:01:08;0.15;66.21
72602;DHT22;60644;55.858;37.390;2022-11-20T18:03:34;0.21;66.32
72602;DHT22;60644;55.858;37.390;2022-11-20T18:06:08;0.28;66.33
72602;DHT22;60644;55.858;37.390;2022-11-20T18:08:35;0.32;66.24
72602;DHT22;60644;55.858;37.390;2022-11-20T18:11:11;0.34;66.04
72602;DHT22;60644;55.858;37.390;2022-11-20T18:13:39;0.37;65.67
72602;DHT22;60644;55.858;37.390;2022-11-20T18:16:24;0.38;66.05
72602;DHT22;60644;55.858;37.390;2022-11-20T18:18:53;0.38;65.70
72602;DHT22;60644;55.858;37.390;2022-11-20T18:21:21;0.37;65.72
72602;DHT22;60644;55.858;37.390;2022-11-20T18:23:47;0.42;65.93
72602;DHT22;60644;55.858;37.390;2022-11-20T18:26:13;0.46;65.95
72602;DHT22;60644;55.858;37.390;2022-11-20T18:28:40;0.49;65.73
72602;DHT22;60644;55.858;37.390;2022-11-20T18:31:07;0.54;65.82
72602;DHT22;60644;55.858;37.390;2022-11-20T18:33:34;0.54;65.24
72602;DHT22;60644;55.858;37.390;2022-11-20T18:36:12;0.54;65.27
72602;DHT22;60644;55.858;37.390;2022-11-20T18:38:43;0.49;65.04
72602;DHT22;60644;55.858;37.390;2022-11-20T18:41:12;0.49;64.91
72602;DHT22;60644;55.858;37.390;2022-11-20T18:43:57;0.47;64.34
72602;DHT22;60644;55.858;37.390;2022-11-20T18:46:42;0.46;65.11
72602;DHT22;60644;55.858;37.390;2022-11-20T18:49:08;0.47;65.26
72602;DHT22;60644;55.858;37.390;2022-11-20T18:51:35;0.50;64.86
72602;DHT22;60644;55.858;37.390;2022-11-20T18:54:02;0.40;64.31
72602;DHT22;60644;55.858;37.390;2022-11-20T18:56:28;0.37;64.52
72602;DHT22;60644;55.858;37.390;2022-11-20T18:58:54;0.37;64.80
72602;DHT22;60644;55.858;37.390;2022-11-20T19:01:20;0.36;64.62
72602;DHT22;60644;55.858;37.390;2022-11-20T19:03:45;0.36;64.99
72602;DHT22;60644;55.858;37.390;2022-11-20T19:06:12;0.39;65.97
72602;DHT22;60644;55.858;37.390;2022-11-20T19:08:39;0.35;65.58
72602;DHT22;60644;55.858;37.390;2022-11-20T19:11:06;0.36;65.37
72602;DHT22;60644;55.858;37.390;2022-11-20T19:13:33;0.38;65.25
72602;DHT22;60644;55.858;37.390;2022-11-20T19:16:12;0.44;65.50
72602;DHT22;60644;55.858;37.390;2022-11-20T19:18:40;0.49;65.30
72602;DHT22;60644;55.858;37.390;2022-11-20T19:21:13;0.51;65.16
72602;DHT22;60644;55.858;37.390;2022-11-20T19:23:40;0.53;65.03
72602;DHT22;60644;55.858;37.390;2022-11-20T19:26:06;0.57;65.28
72602;DHT22;60644;55.858;37.390;2022-11-20T19:28:33;0.58;65.37
72602;DHT22;60644;55.858;37.390;2022-11-20T19:31:04;0.55;65.18
72602;DHT22;60644;55.858;37.390;2022-11-20T19:33:31;0.59;65.43
72602;DHT22;60644;55.858;37.390;2022-11-20T19:36:17;0.53;65.38
72602;DHT22;60644;55.858;37.390;2022-11-20T19:38:46;0.44;64.90
72602;DHT22;60644;55.858;37.390;2022-11-20T19:41:13;0.36;65.78
72602;DHT22;60644;55.858;37.390;2022-11-20T19:43:42;0.31;64.76
72602;DHT22;60644;55.858;37.390;2022-11-20T19:46:08;0.27;64.71
72602;DHT22;60644;55.858;37.390;2022-11-20T19:48:36;0.21;64.48
72602;DHT22;60644;55.858;37.390;2022-11-20T19:53:39;0.18;65.14
72602;DHT22;60644;55.858;37.390;2022-11-20T19:56:05;0.17;65.83
72602;DHT22;60644;55.858;37.390;2022-11-20T19:58:31;0.15;65.59
72602;DHT22;60644;55.858;37.390;2022-11-20T20:01:14;0.18;65.20
72602;DHT22;60644;55.858;37.390;2022-11-20T20:03:43;0.21;65.96
72602;DHT22;60644;55.858;37.390;2022-11-20T20:06:17;0.15;65.73
72602;DHT22;60644;55.858;37.390;2022-11-20T20:08:43;0.15;65.89
72602;DHT22;60644;55.858;37.390;2022-11-20T20:11:18;0.12;65.56
72602;DHT22;60644;55.858;37.390;2022-11-20T20:13:45;0.06;65.96
72602;DHT22;60644;55.858;37.390;2022-11-20T20:16:16;0.02;66.17
72602;DHT22;60644;55.858;37.390;2022-11-20T20:18:43;-0.02;66.11
72602;DHT22;60644;55.858;37.390;2022-11-20T20:21:15;-0.03;66.11
72602;DHT22;60644;55.858;37.390;2022-11-20T20:23:44;0.01;66.07
72602;DHT22;60644;55.858;37.390;2022-11-20T20:26:10;0.02;66.04
72602;DHT22;60644;55.858;37.390;2022-11-20T20:28:36;0.08;66.17
72602;DHT22;60644;55.858;37.390;2022-11-20T20:31:11;0.21;66.17
72602;DHT22;60644;55.858;37.390;2022-11-20T20:33:38;0.28;65.91
72602;DHT22;60644;55.858;37.390;2022-11-20T20:36:06;0.29;65.88
72602;DHT22;60644;55.858;37.390;2022-11-20T20:38:32;0.28;66.11
72602;DHT22;60644;55.858;37.390;2022-11-20T20:40:58;0.21;65.98
72602;DHT22;60644;55.858;37.390;2022-11-20T20:43:24;0.17;65.85
72602;DHT22;60644;55.858;37.390;2022-11-20T20:45:50;0.12;66.10
72602;DHT22;60644;55.858;37.390;2022-11-20T20:48:18;0.02;66.23
72602;DHT22;60644;55.858;37.390;2022-11-20T20:50:55;-0.07;66.44
72602;DHT22;60644;55.858;37.390;2022-11-20T20:53:22;-0.13;66.53
72602;DHT22;60644;55.858;37.390;2022-11-20T20:55:59;-0.15;66.65
72602;DHT22;60644;55.858;37.390;2022-11-20T20:58:26;-0.17;66.77
72602;DHT22;60644;55.858;37.390;2022-11-20T21:00:53;-0.14;66.86
72602;DHT22;60644;55.858;37.390;2022-11-20T21:03:19;-0.14;66.91
72602;DHT22;60644;55.858;37.390;2022-11-20T21:05:46;-0.17;66.91
72602;DHT22;60644;55.858;37.390;2022-11-20T21:08:19;-0.23;67.00
72602;DHT22;60644;55.858;37.390;2022-11-20T21:10:49;-0.29;67.04
72602;DHT22;60644;55.858;37.390;2022-11-20T21:13:16;-0.32;67.04
72602;DHT22;60644;55.858;37.390;2022-11-20T21:15:45;-0.42;67.24
72602;DHT22;60644;55.858;37.390;2022-11-20T21:18:11;-0.45;67.14
72602;DHT22;60644;55.858;37.390;2022-11-20T21:20:40;-0.50;67.37
72602;DHT22;60644;55.858;37.390;2022-11-20T21:23:25;-0.47;67.48
72602;DHT22;60644;55.858;37.390;2022-11-20T21:25:50;-0.41;67.39
72602;DHT22;60644;55.858;37.390;2022-11-20T21:28:16;-0.43;67.55
72602;DHT22;60644;55.858;37.390;2022-11-20T21:30:42;-0.39;67.69
72602;DHT22;60644;55.858;37.390;2022-11-20T21:33:08;-0.30;67.53
72602;DHT22;60644;55.858;37.390;2022-11-20T21:35:34;-0.28;67.47
72602;DHT22;60644;55.858;37.390;2022-11-20T21:38:00;-0.36;67.33
72602;DHT22;60644;55.858;37.390;2022-11-20T21:40:26;-0.38;67.33
72602;DHT22;60644;55.858;37.390;2022-11-20T21:42:52;-0.36;67.29
72602;DHT22;60644;55.858;37.390;2022-11-20T21:45:18;-0.37;67.27
72602;DHT22;60644;55.858;37.390;2022-11-20T21:47:44;-0.39;67.16
72602;DHT22;60644;55.858;37.390;2022-11-20T21:50:12;-0.41;67.15
72602;DHT22;60644;55.858;37.390;2022-11-20T21:52:38;-0.39;67.22
72602;DHT22;60644;55.858;37.390;2022-11-20T21:55:05;-0.39;67.22
72602;DHT22;60644;55.858;37.390;2022-11-20T21:57:34;-0.34;67.13
72602;DHT22;60644;55.858;37.390;2022-11-20T22:00:00;-0.32;66.93
72602;DHT22;60644;55.858;37.390;2022-11-20T22:02:28;-0.30;67.06
72602;DHT22;60644;55.858;37.390;2022-11-20T22:04:54;-0.29;67.06
72602;DHT22;60644;55.858;37.390;2022-11-20T22:07:21;-0.21;67.04
72602;DHT22;60644;55.858;37.390;2022-11-20T22:09:46;-0.15;66.98
72602;DHT22;60644;55.858;37.390;2022-11-20T22:12:14;-0.12;66.84
72602;DHT22;60644;55.858;37.390;2022-11-20T22:14:41;-0.15;66.60
72602;DHT22;60644;55.858;37.390;2022-11-20T22:17:12;-0.19;66.73
72602;DHT22;60644;55.858;37.390;2022-11-20T22:19:38;-0.25;66.78
72602;DHT22;60644;55.858;37.390;2022-11-20T22:22:04;-0.32;66.85
72602;DHT22;60644;55.858;37.390;2022-11-20T22:24:30;-0.35;66.74
72602;DHT22;60644;55.858;37.390;2022-11-20T22:26:56;-0.29;66.87
72602;DHT22;60644;55.858;37.390;2022-11-20T22:29:22;-0.29;66.91
72602;DHT22;60644;55.858;37.390;2022-11-20T22:31:51;-0.32;66.94
72602;DHT22;60644;55.858;37.390;2022-11-20T22:34:17;-0.31;66.95
72602;DHT22;60644;55.858;37.390;2022-11-20T22:36:43;-0.39;66.79
72602;DHT22;60644;55.858;37.390;2022-11-20T22:39:10;-0.40;66.93
72602;DHT22;60644;55.858;37.390;2022-11-20T22:41:35;-0.41;66.95
72602;DHT22;60644;55.858;37.390;2022-11-20T22:44:03;-0.44;66.98
72602;DHT22;60644;55.858;37.390;2022-11-20T22:46:32;-0.38;67.14
72602;DHT22;60644;55.858;37.390;2022-11-20T22:49:00;-0.31;67.14
72602;DHT22;60644;55.858;37.390;2022-11-20T22:51:28;-0.26;67.07
72602;DHT22;60644;55.858;37.390;2022-11-20T22:53:54;-0.24;67.16
72602;DHT22;60644;55.858;37.390;2022-11-20T22:56:21;-0.29;67.04
72602;DHT22;60644;55.858;37.390;2022-11-20T22:58:48;-0.27;67.06
72602;DHT22;60644;55.858;37.390;2022-11-20T23:01:19;-0.28;66.99
72602;DHT22;60644;55.858;37.390;2022-11-20T23:03:47;-0.23;67.04
72602;DHT22;60644;55.858;37.390;2022-11-20T23:06:14;-0.15;67.10
72602;DHT22;60644;55.858;37.390;2022-11-20T23:08:41;-0.09;66.94
72602;DHT22;60644;55.858;37.390;2022-11-20T23:11:11;-0.11;66.81
72602;DHT22;60644;55.858;37.390;2022-11-20T23:13:38;-0.07;66.76
72602;DHT22;60644;55.858;37.390;2022-11-20T23:16:10;0.01;66.75
72602;DHT22;60644;55.858;37.390;2022-11-20T23:18:36;0.05;66.84
72602;DHT22;60644;55.858;37.390;2022-11-20T23:21:04;0.09;66.81
72602;DHT22;60644;55.858;37.390;2022-11-20T23:23:30;0.06;66.76
72602;DHT22;60644;55.858;37.390;2022-11-20T23:26:00;0.07;66.85
72602;DHT22;60644;55.858;37.390;2022-11-20T23:28:26;0.08;66.78
72602;DHT22;60644;55.858;37.390;2022-11-20T23:30:52;0.12;66.73
72602;DHT22;60644;55.858;37.390;2022-11-20T23:33:18;0.14;66.69
72602;DHT22;60644;55.858;37.390;2022-11-20T23:35:46;0.09;66.63
72602;DHT22;60644;55.858;37.390;2022-11-20T23:38:12;-0.06;66.55
72602;DHT22;60644;55.858;37.390;2022-11-20T23:40:38;-0.14;66.83
72602;DHT22;60644;55.858;37.390;2022-11-20T23:43:04;-0.21;67.05
72602;DHT22;60644;55.858;37.390;2022-11-20T23:45:50;-0.25;67.01
72602;DHT22;60644;55.858;37.390;2022-11-20T23:48:17;-0.35;67.13
72602;DHT22;60644;55.858;37.390;2022-11-20T23:50:44;-0.42;67.23
72602;DHT22;60644;55.858;37.390;2022-11-20T23:53:11;-0.43;67.33
72602;DHT22;60644;55.858;37.390;2022-11-20T23:55:37;-0.44;67.33
72602;DHT22;60644;55.858;37.390;2022-11-20T23:58:03;-0.40;67.51
